Time;durP1;ratioP1;P1;durP2;ratioP2;P2;SDS_P1;SDS_P2;PMS_P1;PMS_P2;Temp;Humidity;BMP_temperature;BMP_pressure;BME280_temperature;BME280_humidity;BME280_pressure;Samples;Min_cycle;Max_cycle;Signal;HPM_P1;HPM_P2
2022/06/27 00:02:52;;;;;;;4.88;1.90;;;;;;;20.92;100.00;101334.09;10340711;28;20036;-72
2022/06/27 00:07:48;;;;;;;4.35;2.25;;;;;;;20.89;100.00;101339.63;10342905;27;20040;-72
2022/06/27 00:12:45;;;;;;;3.90;1.50;;;;;;;20.90;100.00;101330.09;10342456;28;20078;-68
2022/06/27 00:17:41;;;;;;;5.80;2.47;;;;;;;20.89;100.00;101317.38;10361799;28;20140;-72
2022/06/27 00:22:38;;;;;;;3.10;2.00;;;;;;;20.91;100.00;101331.69;10349855;28;20173;-72
2022/06/27 00:27:35;;;;;;;3.03;1.80;;;;;;;20.90;100.00;101324.53;10348891;27;20070;-72
2022/06/27 00:32:32;;;;;;;5.18;2.65;;;;;;;20.82;100.00;101329.19;10349580;28;20040;-69
2022/06/27 00:37:29;;;;;;;3.50;1.98;;;;;;;20.78;100.00;101326.34;10340565;28;20405;-72
2022/06/27 00:42:25;;;;;;;5.20;2.00;;;;;;;20.80;100.00;101307.31;10353199;28;20056;-68
2022/06/27 00:47:22;;;;;;;4.10;2.35;;;;;;;20.72;100.00;101308.38;10345515;28;20045;-72
2022/06/27 00:52:18;;;;;;;3.97;2.03;;;;;;;20.70;100.00;101315.47;10360540;28;20075;-71
2022/06/27 00:57:16;;;;;;;4.95;1.95;;;;;;;20.69;100.00;101306.34;10343498;28;20079;-68
2022/06/27 01:02:13;;;;;;;3.75;2.33;;;;;;;20.57;100.00;101323.22;10348341;28;20039;-69
2022/06/27 01:07:10;;;;;;;5.22;2.05;;;;;;;20.64;100.00;101306.66;10362829;28;20063;-69
2022/06/27 01:12:11;;;;;;;2.75;1.63;;;;;;;20.68;100.00;101310.31;10349779;27;20543;-69
2022/06/27 01:17:10;;;;;;;3.28;1.60;;;;;;;20.69;100.00;101309.13;10342499;28;20524;-70
2022/06/27 01:22:10;;;;;;;3.53;1.60;;;;;;;20.68;100.00;101318.66;10353216;28;20120;-71
2022/06/27 01:27:08;;;;;;;5.35;2.25;;;;;;;20.67;100.00;101317.03;10341434;27;20105;-71
2022/06/27 01:32:05;;;;;;;7.13;2.00;;;;;;;20.69;100.00;101309.13;10355758;28;20040;-71
2022/06/27 01:37:04;;;;;;;5.47;2.42;;;;;;;20.66;100.00;101337.66;10332454;28;20044;-70
2022/06/27 01:42:02;;;;;;;4.63;2.30;;;;;;;20.49;100.00;101474.22;10348043;28;20044;-69
2022/06/27 01:46:59;;;;;;;3.70;1.98;;;;;;;20.41;100.00;101466.94;10345740;28;20634;-71
2022/06/27 01:51:57;;;;;;;6.05;2.50;;;;;;;20.32;100.00;101395.75;10347818;27;20050;-71
2022/06/27 01:56:54;;;;;;;6.40;2.75;;;;;;;20.34;100.00;101448.97;10349858;28;20446;-65
2022/06/27 02:01:49;;;;;;;4.13;1.92;;;;;;;20.33;100.00;101413.22;10348359;28;20052;-65
2022/06/27 02:06:47;;;;;;;6.20;2.38;;;;;;;20.25;100.00;101398.41;10342208;28;20491;-65
2022/06/27 02:11:45;;;;;;;8.38;2.63;;;;;;;20.21;100.00;101428.06;10342696;28;20048;-67
2022/06/27 02:16:42;;;;;;;5.45;2.50;;;;;;;20.17;100.00;101393.91;10346933;28;20116;-66
2022/06/27 02:21:40;;;;;;;7.65;2.30;;;;;;;20.14;100.00;101406.53;10349702;28;20050;-65
2022/06/27 02:26:37;;;;;;;5.68;2.20;;;;;;;20.17;100.00;101405.00;10349373;28;20075;-68
2022/06/27 02:31:43;;;;;;;4.05;1.83;;;;;;;20.05;100.00;101403.19;10357427;28;20105;-70
2022/06/27 02:36:41;;;;;;;6.55;1.90;;;;;;;19.90;100.00;101410.41;10351334;28;20511;-69
2022/06/27 02:41:39;;;;;;;5.60;2.17;;;;;;;19.84;100.00;101386.91;10351458;28;20488;-69
2022/06/27 02:46:38;;;;;;;6.88;2.42;;;;;;;19.61;100.00;101372.91;10359041;28;20127;-69
2022/06/27 02:51:54;;;;;;;7.05;2.30;;;;;;;19.52;100.00;101370.34;10350388;28;20422;-65
2022/06/27 02:57:04;;;;;;;5.25;1.83;;;;;;;19.59;100.00;101363.31;10348919;28;20074;-65
2022/06/27 03:02:01;;;;;;;3.53;1.60;;;;;;;19.44;100.00;101368.56;10353817;28;20052;-69
2022/06/27 03:06:58;;;;;;;3.58;1.77;;;;;;;19.49;100.00;101359.97;10346691;28;20067;-69
2022/06/27 03:11:54;;;;;;;4.20;2.10;;;;;;;19.50;100.00;101383.78;10352790;28;20032;-69
2022/06/27 03:16:51;;;;;;;4.80;1.85;;;;;;;19.46;100.00;101387.63;10331049;28;20090;-70
2022/06/27 03:21:47;;;;;;;5.20;1.98;;;;;;;19.19;100.00;101389.38;10323612;28;20504;-67
2022/06/27 03:26:44;;;;;;;4.93;2.13;;;;;;;19.02;100.00;101410.78;10331014;28;20095;-69
2022/06/27 03:31:41;;;;;;;5.80;2.20;;;;;;;18.92;100.00;101403.81;10325506;28;20049;-70
2022/06/27 03:36:44;;;;;;;6.65;2.00;;;;;;;18.85;100.00;101431.34;10341327;28;20043;-74
2022/06/27 03:41:43;;;;;;;3.95;2.03;;;;;;;18.74;100.00;101495.91;10340618;28;20167;-74
2022/06/27 03:46:40;;;;;;;6.72;2.72;;;;;;;18.72;100.00;101477.66;10340958;28;20062;-69
2022/06/27 03:51:37;;;;;;;6.43;2.63;;;;;;;18.50;100.00;101425.66;10348434;28;20045;-73
2022/06/27 03:56:34;;;;;;;7.90;2.13;;;;;;;18.21;100.00;101402.72;10339152;28;20075;-73
2022/06/27 04:01:30;;;;;;;6.00;2.60;;;;;;;18.10;100.00;101376.69;10336789;28;20044;-74
2022/06/27 04:06:27;;;;;;;8.15;2.90;;;;;;;17.96;100.00;101368.84;10338745;28;20063;-74
2022/06/27 04:11:24;;;;;;;8.38;2.80;;;;;;;17.88;100.00;101373.34;10342079;28;20068;-73
2022/06/27 04:16:20;;;;;;;6.35;2.90;;;;;;;18.00;100.00;101389.09;10341800;28;20376;-73
2022/06/27 04:21:22;;;;;;;7.32;2.95;;;;;;;17.99;100.00;101378.38;10349283;28;20060;-73
2022/06/27 04:26:19;;;;;;;10.88;4.78;;;;;;;17.97;100.00;101362.13;10326492;28;20052;-75
2022/06/27 04:31:15;;;;;;;9.35;4.05;;;;;;;17.99;100.00;101378.38;10330693;28;20052;-73
2022/06/27 04:36:12;;;;;;;9.93;4.00;;;;;;;17.84;100.00;101338.44;10327314;28;20537;-73
2022/06/27 04:41:09;;;;;;;7.75;4.20;;;;;;;17.84;100.00;101328.16;10326142;28;20047;-72
2022/06/27 04:46:06;;;;;;;9.73;4.45;;;;;;;17.80;100.00;101283.00;10337819;28;20079;-73
2022/06/27 04:51:03;;;;;;;8.57;3.92;;;;;;;17.86;100.00;101300.97;10340315;28;20078;-72
2022/06/27 04:56:00;;;;;;;15.15;5.22;;;;;;;17.95;100.00;101316.59;10340423;28;20496;-71
2022/06/27 05:00:56;;;;;;;7.90;4.05;;;;;;;18.00;100.00;101347.56;10333167;28;20076;-72
2022/06/27 05:05:53;;;;;;;8.15;4.10;;;;;;;18.07;100.00;101342.25;10329159;28;20094;-72
2022/06/27 05:10:49;;;;;;;8.98;4.35;;;;;;;18.10;100.00;101335.19;10369003;28;20040;-73
2022/06/27 05:15:46;;;;;;;8.25;4.40;;;;;;;18.18;100.00;101325.13;10325546;28;20040;-73
2022/06/27 05:20:43;;;;;;;8.07;3.97;;;;;;;18.17;100.00;101313.25;10337999;28;20040;-73
2022/06/27 05:25:41;;;;;;;7.15;4.65;;;;;;;18.26;100.00;101333.28;10334884;28;20771;-69
2022/06/27 05:30:38;;;;;;;10.18;4.43;;;;;;;18.27;100.00;101345.94;10323540;28;20048;-69
2022/06/27 05:35:35;;;;;;;8.23;4.15;;;;;;;18.32;100.00;101364.25;10331930;28;20068;-69
2022/06/27 05:40:33;;;;;;;7.45;4.22;;;;;;;18.42;100.00;101357.38;10337531;28;20472;-69
2022/06/27 05:45:30;;;;;;;6.57;4.35;;;;;;;18.54;100.00;101357.31;10353482;27;20118;-69
2022/06/27 05:50:28;;;;;;;10.90;5.20;;;;;;;18.60;100.00;101344.81;10341242;28;20067;-69
2022/06/27 05:55:27;;;;;;;14.45;5.40;;;;;;;18.69;100.00;101322.47;10343817;28;20135;-69
2022/06/27 06:00:24;;;;;;;8.52;4.72;;;;;;;18.83;100.00;101327.59;10369072;27;20102;-69
2022/06/27 06:05:21;;;;;;;10.20;5.82;;;;;;;18.73;100.00;101309.53;10364641;28;20080;-69
2022/06/27 06:10:18;;;;;;;9.07;5.28;;;;;;;18.89;100.00;101304.78;10357277;28;20094;-69
2022/06/27 06:15:14;;;;;;;6.85;4.80;;;;;;;18.97;100.00;101308.53;10359182;28;20079;-69
2022/06/27 06:20:11;;;;;;;9.30;5.22;;;;;;;19.07;100.00;101310.72;10366180;28;20040;-69
2022/06/27 06:25:08;;;;;;;9.73;5.28;;;;;;;19.20;100.00;101285.66;10366465;28;20628;-69
2022/06/27 06:30:07;;;;;;;8.63;5.47;;;;;;;19.31;100.00;101289.47;10354804;28;20101;-69
2022/06/27 06:35:05;;;;;;;9.63;5.82;;;;;;;19.44;100.00;101274.28;10349781;28;20688;-69
2022/06/27 06:40:02;;;;;;;9.15;5.72;;;;;;;19.53;100.00;101287.94;10371503;28;20056;-69
2022/06/27 06:44:59;;;;;;;8.02;5.60;;;;;;;19.49;100.00;101287.84;10354955;28;20048;-69
2022/06/27 06:49:55;;;;;;;8.32;5.90;;;;;;;19.49;100.00;101281.50;10356543;28;20075;-70
2022/06/27 06:54:52;;;;;;;9.45;7.65;;;;;;;19.58;100.00;101295.16;10351620;28;20048;-70
2022/06/27 06:59:48;;;;;;;9.93;6.80;;;;;;;19.61;100.00;101294.41;10365455;28;20040;-70
2022/06/27 07:04:47;;;;;;;11.27;6.63;;;;;;;19.67;100.00;101301.28;10355687;28;20044;-70
2022/06/27 07:09:44;;;;;;;8.52;6.57;;;;;;;19.76;100.00;101302.69;10358175;28;20453;-70
2022/06/27 07:14:47;;;;;;;9.75;6.60;;;;;;;19.74;100.00;101304.25;10360269;27;20079;-70
2022/06/27 07:19:50;;;;;;;8.13;6.93;;;;;;;19.69;100.00;101333.06;10346848;28;20101;-70
2022/06/27 07:24:47;;;;;;;17.25;7.68;;;;;;;19.70;100.00;101369.94;10344238;28;20637;-70
2022/06/27 07:29:44;;;;;;;9.50;7.03;;;;;;;19.69;100.00;101390.53;10349536;28;20048;-70
2022/06/27 07:34:40;;;;;;;10.10;7.05;;;;;;;19.72;100.00;101378.69;10348279;28;20036;-70
2022/06/27 07:39:37;;;;;;;14.45;9.32;;;;;;;19.71;100.00;101377.91;10358919;28;20735;-70
2022/06/27 07:44:34;;;;;;;12.50;9.07;;;;;;;19.62;100.00;101387.59;10356239;28;20113;-70
2022/06/27 07:49:32;;;;;;;10.35;7.95;;;;;;;19.58;100.00;101395.00;10355740;27;20746;-70
2022/06/27 07:54:29;;;;;;;9.48;7.05;;;;;;;19.58;100.00;101383.91;10347705;28;20127;-70
2022/06/27 07:59:25;;;;;;;14.27;8.82;;;;;;;19.55;100.00;101364.06;10351819;28;20083;-69
2022/06/27 08:04:23;;;;;;;12.77;9.80;;;;;;;19.35;100.00;101365.19;10350003;28;20121;-70
2022/06/27 08:09:22;;;;;;;13.65;10.85;;;;;;;19.26;100.00;101367.38;10352891;28;20055;-70
2022/06/27 08:14:18;;;;;;;17.48;11.07;;;;;;;19.18;100.00;101348.97;10344986;28;20052;-70
2022/06/27 08:19:15;;;;;;;16.75;11.55;;;;;;;19.24;100.00;101353.06;10338758;28;20044;-70
2022/06/27 08:24:16;;;;;;;11.90;9.27;;;;;;;19.36;100.00;101375.13;10353903;28;20052;-70
2022/06/27 08:29:13;;;;;;;16.63;11.23;;;;;;;19.31;100.00;101367.09;10346186;28;20051;-69
2022/06/27 08:34:12;;;;;;;16.33;9.07;;;;;;;19.32;100.00;101377.03;10346935;28;20052;-69
2022/06/27 08:39:15;;;;;;;12.45;9.70;;;;;;;19.19;100.00;101372.75;10351849;28;20043;-69
2022/06/27 08:44:13;;;;;;;14.82;10.73;;;;;;;19.13;100.00;101375.00;10355062;28;20090;-68
2022/06/27 08:49:14;;;;;;;14.00;11.32;;;;;;;19.22;100.00;101374.81;10359261;27;20071;-68
2022/06/27 08:54:11;;;;;;;19.10;12.98;;;;;;;19.18;100.00;101387.78;10350545;27;20044;-68
2022/06/27 08:59:08;;;;;;;22.40;16.95;;;;;;;19.08;100.00;101395.50;10353983;28;20132;-68
2022/06/27 09:04:06;;;;;;;19.85;14.85;;;;;;;19.05;100.00;101390.66;10350744;28;20463;-68
2022/06/27 09:09:08;;;;;;;22.63;15.50;;;;;;;19.13;100.00;101364.72;10335300;28;20093;-68
2022/06/27 09:14:26;;;;;;;19.03;15.33;;;;;;;19.21;100.00;101368.44;10351454;28;20039;-68
2022/06/27 09:19:44;;;;;;;20.85;14.85;;;;;;;19.37;100.00;101373.97;10338394;28;20086;-69
2022/06/27 09:25:00;;;;;;;19.98;13.52;;;;;;;19.39;100.00;101360.53;10334845;28;20121;-69
2022/06/27 09:29:57;;;;;;;19.63;14.13;;;;;;;19.52;100.00;101361.22;10340665;28;20513;-68
2022/06/27 09:34:54;;;;;;;17.48;12.55;;;;;;;19.60;100.00;101376.03;10348697;28;20131;-69
2022/06/27 09:39:52;;;;;;;17.60;14.40;;;;;;;19.62;100.00;101396.69;10363809;28;20077;-69
2022/06/27 09:44:49;;;;;;;22.05;14.88;;;;;;;19.36;100.00;101400.09;10355382;28;20667;-68
2022/06/27 09:49:51;;;;;;;19.63;14.90;;;;;;;19.31;100.00;101380.97;10362065;28;20052;-69
2022/06/27 09:54:49;;;;;;;19.85;16.02;;;;;;;19.41;100.00;101352.66;10361733;28;20535;-68
2022/06/27 09:59:48;;;;;;;19.85;16.73;;;;;;;19.65;100.00;101375.75;10361809;28;20040;-69
2022/06/27 10:04:47;;;;;;;21.60;15.45;;;;;;;19.60;100.00;101376.03;10366860;28;20093;-68
2022/06/27 10:09:45;;;;;;;21.83;16.30;;;;;;;19.66;100.00;101380.94;10354862;28;20571;-68
2022/06/27 10:14:42;;;;;;;22.02;15.10;;;;;;;19.58;100.00;101372.81;10363483;27;20536;-69
2022/06/27 10:20:00;;;;;;;19.02;14.80;;;;;;;19.74;100.00;101381.91;10335277;28;20090;-68
2022/06/27 10:25:26;;;;;;;17.00;13.90;;;;;;;19.69;100.00;101391.34;10352394;28;20101;-68
2022/06/27 10:30:43;;;;;;;19.38;14.95;;;;;;;19.69;100.00;101385.00;10354002;28;20044;-68
2022/06/27 10:36:11;;;;;;;20.95;14.95;;;;;;;19.73;100.00;101369.22;10346389;28;20048;-68
2022/06/27 10:41:09;;;;;;;22.83;15.00;;;;;;;19.88;100.00;101354.47;10342828;28;20043;-69
2022/06/27 10:46:08;;;;;;;17.98;13.38;;;;;;;20.10;100.00;101377.09;10344244;28;20591;-68
2022/06/27 10:51:26;;;;;;;20.95;14.65;;;;;;;20.27;100.00;101381.38;10355096;28;20032;-68
2022/06/27 10:56:26;;;;;;;18.48;14.02;;;;;;;20.39;100.00;101379.22;10354477;28;20044;-68
2022/06/27 11:01:22;;;;;;;20.70;16.25;;;;;;;20.33;100.00;101374.34;10356711;28;20408;-68
2022/06/27 11:06:20;;;;;;;17.42;15.05;;;;;;;20.30;100.00;101364.78;10355908;28;20070;-68
2022/06/27 11:11:18;;;;;;;19.15;15.65;;;;;;;20.28;100.00;101366.31;10353553;28;20101;-68
2022/06/27 11:16:20;;;;;;;18.98;15.02;;;;;;;20.17;100.00;101366.13;10362025;28;20408;-69
2022/06/27 11:21:24;;;;;;;24.50;15.40;;;;;;;20.14;100.00;101364.91;10351635;28;20048;-69
2022/06/27 11:26:23;;;;;;;17.38;14.27;;;;;;;20.58;100.00;101374.81;10361333;28;20097;-68
2022/06/27 11:36:36;;;;;;;18.88;15.25;;;;;;;20.45;100.00;101392.81;10360318;28;20062;-69
2022/06/27 11:41:39;;;;;;;20.42;18.20;;;;;;;20.22;100.00;101401.91;10358493;28;20113;-68
2022/06/27 11:46:51;;;;;;;20.10;14.93;;;;;;;20.25;100.00;101394.81;10375053;28;20051;-68
2022/06/27 11:51:48;;;;;;;21.33;14.80;;;;;;;20.12;100.00;101408.06;10352011;28;20115;-68
2022/06/27 11:56:48;;;;;;;17.85;14.15;;;;;;;20.02;100.00;101398.34;10357112;28;20076;-68
2022/06/27 12:01:53;;;;;;;23.08;16.67;;;;;;;19.84;100.00;101431.31;10358017;28;20056;-68
2022/06/27 12:06:54;;;;;;;19.60;16.00;;;;;;;19.84;100.00;101413.81;10349031;28;20052;-68
2022/06/27 12:11:55;;;;;;;20.73;15.80;;;;;;;19.71;100.00;101404.84;10352475;28;20175;-69
2022/06/27 12:16:58;;;;;;;16.65;13.15;;;;;;;19.73;100.00;101408.06;10362874;27;20762;-69
2022/06/27 12:21:55;;;;;;;14.68;10.98;;;;;;;19.87;100.00;101405.59;10372297;27;20513;-69
2022/06/27 12:26:53;;;;;;;15.15;11.85;;;;;;;19.77;100.00;101420.03;10360724;28;20052;-69
2022/06/27 12:31:50;;;;;;;14.02;10.60;;;;;;;19.58;100.00;101426.31;10367370;28;20048;-68
2022/06/27 12:36:47;;;;;;;15.98;11.55;;;;;;;19.61;100.00;101410.91;10364817;28;20465;-69
2022/06/27 12:41:43;;;;;;;19.05;14.90;;;;;;;19.61;100.00;101413.69;10369644;28;20044;-69
2022/06/27 12:46:40;;;;;;;20.50;14.55;;;;;;;19.51;100.00;101399.22;10351875;28;20067;-69
2022/06/27 12:51:51;;;;;;;19.13;15.73;;;;;;;19.68;100.00;101422.16;10358366;28;20062;-68
2022/06/27 12:56:53;;;;;;;20.05;14.07;;;;;;;20.10;100.00;101399.31;10351399;28;20055;-69
2022/06/27 13:01:50;;;;;;;15.13;12.10;;;;;;;20.65;100.00;101397.16;10351899;28;20082;-70
2022/06/27 13:06:47;;;;;;;15.32;12.57;;;;;;;21.02;100.00;101377.13;10348877;28;20039;-68
2022/06/27 13:11:44;;;;;;;15.07;13.05;;;;;;;21.22;100.00;101386.97;10365367;27;20076;-71
2022/06/27 13:16:40;;;;;;;14.95;12.93;;;;;;;20.93;100.00;101385.75;10354662;27;20074;-70
2022/06/27 13:21:38;;;;;;;17.45;14.20;;;;;;;20.94;100.00;101409.56;10359803;28;20044;-70
2022/06/27 13:26:34;;;;;;;14.80;12.93;;;;;;;21.15;100.00;101408.31;10353430;28;20565;-70
2022/06/27 13:31:31;;;;;;;14.18;12.43;;;;;;;21.12;100.00;101432.13;10368513;28;20135;-70
2022/06/27 13:36:27;;;;;;;14.32;12.82;;;;;;;20.91;100.00;101435.34;10353369;28;20052;-69
2022/06/27 13:41:24;;;;;;;15.45;13.55;;;;;;;20.91;100.00;101426.19;10362739;28;20074;-70
2022/06/27 13:46:20;;;;;;;13.38;12.00;;;;;;;21.09;100.00;101426.47;10354602;28;20047;-70
2022/06/27 13:51:17;;;;;;;15.38;13.32;;;;;;;21.14;100.00;101424.22;10349285;28;20482;-70
2022/06/27 13:56:13;;;;;;;14.15;12.40;;;;;;;21.16;100.00;101427.38;10370400;28;20071;-70
2022/06/27 14:01:12;;;;;;;17.13;14.40;;;;;;;20.97;100.00;101446.94;10363209;28;20048;-70
2022/06/27 14:11:23;;;;;;;16.55;14.88;;;;;;;20.68;100.00;101423.41;10360068;28;20052;-70
2022/06/27 14:16:22;;;;;;;16.45;14.20;;;;;;;20.54;100.00;101423.94;10352181;28;20097;-70
2022/06/27 14:21:19;;;;;;;18.38;16.45;;;;;;;20.57;100.00;101445.47;10356706;28;20434;-70
2022/06/27 14:26:16;;;;;;;16.40;14.02;;;;;;;20.51;100.00;101460.78;10359428;28;20036;-70
2022/06/27 14:31:13;;;;;;;15.30;13.20;;;;;;;20.52;100.00;101460.41;10353176;28;20052;-69
2022/06/27 14:36:10;;;;;;;14.05;11.90;;;;;;;20.74;100.00;101431.06;10362394;27;20484;-70
2022/06/27 14:41:07;;;;;;;19.15;15.80;;;;;;;20.57;100.00;101423.22;10365659;28;20101;-70
2022/06/27 14:46:04;;;;;;;15.93;13.20;;;;;;;20.48;100.00;101420.66;10366772;28;20101;-70
2022/06/27 14:51:01;;;;;;;18.45;16.55;;;;;;;20.33;100.00;101414.03;10348640;28;20066;-70
2022/06/27 14:55:57;;;;;;;18.92;15.35;;;;;;;20.11;100.00;101428.66;10357406;28;20043;-70
2022/06/27 15:00:54;;;;;;;17.73;14.70;;;;;;;20.05;100.00;101430.13;10368091;27;20044;-70
2022/06/27 15:05:50;;;;;;;16.45;14.43;;;;;;;20.05;100.00;101430.13;10359890;27;20067;-70
2022/06/27 15:16:02;;;;;;;20.63;15.32;;;;;;;19.93;100.00;101429.09;10367127;28;20474;-71
2022/06/27 15:20:59;;;;;;;16.70;14.68;;;;;;;19.79;100.00;101459.31;10360203;28;20068;-71
2022/06/27 15:25:55;;;;;;;16.40;14.15;;;;;;;19.75;100.00;101466.78;10348696;28;20039;-71
2022/06/27 15:30:52;;;;;;;17.90;14.45;;;;;;;19.73;100.00;101469.09;10346146;28;20105;-71
2022/06/27 15:35:48;;;;;;;19.83;14.68;;;;;;;19.62;100.00;101473.56;10351676;28;20047;-73
2022/06/27 15:40:45;;;;;;;17.27;13.57;;;;;;;19.67;100.00;101484.38;10344279;28;20539;-73
2022/06/27 15:45:42;;;;;;;16.45;13.70;;;;;;;19.68;100.00;101488.75;10352919;28;20523;-72
2022/06/27 15:50:38;;;;;;;18.30;13.75;;;;;;;19.55;100.00;101447.28;10332443;28;20489;-73
2022/06/27 15:55:35;;;;;;;17.42;15.25;;;;;;;19.31;100.00;101433.66;10334798;28;20052;-72
2022/06/27 16:00:32;;;;;;;20.70;15.52;;;;;;;19.38;100.00;101480.94;10318368;28;20099;-72
2022/06/27 16:05:30;;;;;;;22.25;16.38;;;;;;;19.40;100.00;101488.88;10326065;28;20483;-73
2022/06/27 16:10:27;;;;;;;22.85;17.38;;;;;;;19.38;100.00;101480.94;10329291;28;20047;-71
2022/06/27 16:15:24;;;;;;;22.58;16.63;;;;;;;19.28;100.00;101492.56;10332472;28;20093;-70
2022/06/27 16:20:20;;;;;;;25.92;19.65;;;;;;;19.21;100.00;101476.56;10351559;28;20419;-70
2022/06/27 16:25:17;;;;;;;27.08;20.55;;;;;;;19.10;100.00;101470.78;10339866;28;20048;-71
2022/06/27 16:35:29;;;;;;;25.10;19.40;;;;;;;18.95;100.00;101479.88;10341942;28;20053;-71
2022/06/27 16:40:25;;;;;;;21.23;14.80;;;;;;;18.95;100.00;101509.56;10343720;28;20078;-71
2022/06/27 16:45:22;;;;;;;14.65;10.13;;;;;;;18.82;100.00;101519.88;10330855;28;20055;-70
2022/06/27 16:50:18;;;;;;;16.00;9.95;;;;;;;18.89;100.00;101520.06;10324474;28;20416;-70
2022/06/27 16:55:15;;;;;;;14.90;10.18;;;;;;;18.86;100.00;101543.75;10334646;28;20162;-70
2022/06/27 17:00:13;;;;;;;13.63;10.02;;;;;;;18.79;100.00;101559.41;10342838;28;20040;-70
2022/06/27 17:05:11;;;;;;;18.35;11.48;;;;;;;18.58;100.00;101579.75;10334532;28;20060;-69
2022/06/27 17:10:08;;;;;;;22.13;13.45;;;;;;;18.44;100.00;101576.56;10344435;28;20039;-69
2022/06/27 17:15:04;;;;;;;28.02;17.00;;;;;;;18.30;100.00;101572.22;10342395;28;20181;-68
2022/06/27 17:20:01;;;;;;;29.90;16.52;;;;;;;18.19;100.00;101582.16;10342859;28;20082;-69
2022/06/27 17:25:00;;;;;;;28.77;15.32;;;;;;;18.12;100.00;101570.06;10328442;28;20495;-68
2022/06/27 17:29:57;;;;;;;24.60;14.93;;;;;;;18.07;100.00;101590.47;10323891;28;20048;-69
2022/06/27 17:34:53;;;;;;;20.30;13.25;;;;;;;18.09;100.00;101596.47;10330541;28;20039;-69
2022/06/27 17:39:50;;;;;;;26.27;13.63;;;;;;;18.12;100.00;101587.47;10335648;28;20055;-68
2022/06/27 17:44:47;;;;;;;16.17;9.93;;;;;;;18.04;100.00;101563.53;10330204;28;20064;-70
2022/06/27 17:49:43;;;;;;;16.02;9.82;;;;;;;18.03;100.00;101589.56;10325767;28;20076;-70
2022/06/27 17:54:40;;;;;;;15.00;8.55;;;;;;;18.04;100.00;101632.69;10331621;28;20037;-70
2022/06/27 17:59:37;;;;;;;15.27;8.88;;;;;;;17.99;100.00;101649.53;10334112;28;20044;-71
2022/06/27 18:04:33;;;;;;;14.40;6.95;;;;;;;17.87;100.00;101653.91;10323175;28;20518;-71
2022/06/27 18:09:30;;;;;;;9.55;4.97;;;;;;;17.65;100.00;101646.81;10334163;28;20225;-70
2022/06/27 18:14:26;;;;;;;5.88;2.85;;;;;;;17.65;100.00;101629.41;10323744;28;20056;-69
2022/06/27 18:19:23;;;;;;;4.47;2.10;;;;;;;17.53;100.00;101621.13;10333616;28;20052;-71
2022/06/27 18:24:20;;;;;;;4.22;2.03;;;;;;;17.42;100.00;101631.78;10319270;28;20082;-70
2022/06/27 18:29:16;;;;;;;5.90;2.40;;;;;;;17.45;100.00;101654.03;10320818;28;20060;-71
2022/06/27 18:34:14;;;;;;;4.32;2.10;;;;;;;17.48;100.00;101657.28;10327219;28;20106;-71
2022/06/27 18:39:11;;;;;;;4.18;1.92;;;;;;;17.41;100.00;101664.16;10336534;28;20044;-71
2022/06/27 18:44:08;;;;;;;4.40;2.10;;;;;;;17.44;100.00;101671.78;10332225;28;20743;-70
2022/06/27 18:49:06;;;;;;;4.05;2.08;;;;;;;17.45;100.00;101673.41;10342028;27;20076;-69
2022/06/27 18:54:03;;;;;;;4.28;2.00;;;;;;;17.42;100.00;101687.09;10325760;28;20097;-68
2022/06/27 18:58:59;;;;;;;5.53;1.77;;;;;;;17.42;100.00;101687.88;10327986;28;20048;-68
2022/06/27 19:03:56;;;;;;;4.05;1.88;;;;;;;17.49;100.00;101703.13;10342262;28;20044;-69
2022/06/27 19:08:54;;;;;;;4.85;2.30;;;;;;;17.46;100.00;101702.66;10337149;28;20048;-69
2022/06/27 19:13:50;;;;;;;3.95;2.15;;;;;;;17.53;100.00;101709.59;10330159;28;20040;-69
2022/06/27 19:18:47;;;;;;;5.13;2.60;;;;;;;17.54;100.00;101716.72;10340385;28;20518;-69
2022/06/27 19:23:44;;;;;;;5.80;3.13;;;;;;;17.55;100.00;101734.94;10345326;28;20511;-69
2022/06/27 19:28:40;;;;;;;3.40;2.20;;;;;;;17.58;100.00;101745.31;10337117;28;20116;-70
2022/06/27 19:33:39;;;;;;;4.03;2.40;;;;;;;17.53;100.00;101743.56;10336420;28;20064;-68
2022/06/27 19:38:37;;;;;;;4.75;3.17;;;;;;;17.49;100.00;101730.75;10339827;28;20036;-71
2022/06/27 19:43:33;;;;;;;4.95;2.35;;;;;;;17.30;100.00;101740.38;10340347;28;20425;-71
2022/06/27 19:48:30;;;;;;;4.10;1.88;;;;;;;17.30;100.00;101745.09;10325336;28;20611;-69
2022/06/27 19:53:27;;;;;;;4.22;2.30;;;;;;;17.19;100.00;101755.75;10338202;28;20039;-67
2022/06/27 19:58:23;;;;;;;6.57;2.30;;;;;;;17.17;100.00;101735.91;10330556;28;20639;-67
2022/06/27 20:03:20;;;;;;;5.75;2.03;;;;;;;17.17;100.00;101747.81;10332587;28;20131;-64
2022/06/27 20:08:18;;;;;;;4.45;1.88;;;;;;;17.16;100.00;101759.19;10347625;28;20529;-66
2022/06/27 20:13:14;;;;;;;2.92;1.55;;;;;;;17.20;100.00;101773.97;10331233;28;20044;-66
2022/06/27 20:18:11;;;;;;;3.53;1.75;;;;;;;17.11;100.00;101784.28;10333882;28;20040;-70
2022/06/27 20:23:08;;;;;;;4.63;1.77;;;;;;;17.03;100.00;101772.13;10342164;28;20082;-70
2022/06/27 20:28:05;;;;;;;4.35;2.20;;;;;;;16.85;100.00;101784.41;10325608;28;20122;-65
2022/06/27 20:33:02;;;;;;;4.68;1.90;;;;;;;16.77;100.00;101777.78;10355151;28;20123;-65
2022/06/27 20:37:59;;;;;;;6.00;2.20;;;;;;;16.76;100.00;101782.50;10353430;28;20051;-65
2022/06/27 20:42:56;;;;;;;5.07;2.00;;;;;;;16.75;100.00;101791.13;10360229;28;20093;-65
2022/06/27 20:47:52;;;;;;;3.90;2.10;;;;;;;16.74;100.00;101795.03;10365660;28;20071;-67
2022/06/27 20:52:49;;;;;;;5.72;2.13;;;;;;;16.75;100.00;101791.13;10350779;28;20052;-65
2022/06/27 20:57:46;;;;;;;5.10;2.65;;;;;;;16.76;100.00;101787.22;10350530;28;20080;-64
2022/06/27 21:02:42;;;;;;;5.95;2.67;;;;;;;16.80;100.00;101799.22;10347596;28;20040;-65
2022/06/27 21:12:55;;;;;;;4.30;2.33;;;;;;;16.72;100.00;101780.75;10355460;28;20055;-65
2022/06/27 21:17:51;;;;;;;3.97;2.38;;;;;;;16.68;100.00;101796.34;10355071;28;20071;-66
2022/06/27 21:22:48;;;;;;;6.97;2.80;;;;;;;16.68;100.00;101790.84;10374074;28;20081;-65
2022/06/27 21:27:44;;;;;;;6.85;3.25;;;;;;;16.63;100.00;101795.41;10363138;28;20079;-64
2022/06/27 21:32:41;;;;;;;6.80;3.38;;;;;;;16.60;100.00;101801.59;10361886;28;20044;-63
2022/06/27 21:37:38;;;;;;;5.07;3.20;;;;;;;16.56;100.00;101795.13;10365280;28;20131;-64
2022/06/27 21:42:34;;;;;;;4.50;3.53;;;;;;;16.57;100.00;101794.00;10372746;27;20047;-64
2022/06/27 21:47:32;;;;;;;6.25;4.05;;;;;;;16.57;100.00;101785.69;10358535;28;20051;-62
2022/06/27 21:52:40;;;;;;;5.88;3.75;;;;;;;16.54;100.00;101783.59;10347285;27;20052;-64
2022/06/27 21:57:37;;;;;;;5.32;3.88;;;;;;;16.55;100.00;101776.94;10353981;27;20123;-66
2022/06/27 22:02:34;;;;;;;7.03;3.50;;;;;;;16.59;100.00;101783.41;10362315;28;20132;-68
2022/06/27 22:07:31;;;;;;;6.65;3.97;;;;;;;16.58;100.00;101759.69;10366523;28;20089;-64
2022/06/27 22:12:27;;;;;;;5.75;4.00;;;;;;;16.52;100.00;101766.53;10357684;28;20090;-64
2022/06/27 22:17:24;;;;;;;6.45;3.78;;;;;;;16.50;100.00;101757.81;10352622;28;20207;-63
2022/06/27 22:22:20;;;;;;;8.70;4.00;;;;;;;16.50;100.00;101755.06;10357092;28;20144;-63
2022/06/27 22:27:17;;;;;;;8.38;4.65;;;;;;;16.55;100.00;101787.19;10352173;28;20076;-65
2022/06/27 22:32:13;;;;;;;7.15;3.75;;;;;;;16.54;100.00;101782.78;10355624;28;20071;-65
2022/06/27 22:37:10;;;;;;;8.18;4.30;;;;;;;16.53;100.00;101801.31;10365847;28;20083;-65
2022/06/27 22:42:06;;;;;;;9.63;4.22;;;;;;;16.54;100.00;101800.16;10354189;28;20095;-66
2022/06/27 22:47:05;;;;;;;6.50;3.90;;;;;;;16.62;100.00;101795.75;10365200;27;20077;-63